Maywood, Missouri
Current Conditions -  °F | °C
As of 11:55 AM on Tuesday 21 Oct 2014 (Local Time) from KHAE Reporting Station
Clear Clear  
Wind Chill: 64°   Ceiling: Unl
Heat Index: 64°   Visibility: 10mi
Dew Point: 37°   Wind: 7mph
Humidity: 37%   Direction: 50°NE
Pressure: 30.16"   Gusts: NA
Location:  39.91°N, 91.65°W
Report Text: KHAE 211655Z AUTO 05006KT 10SM CLR 18/03 A3016 RMK AO2
Loading
Personal Weather Stations






























Interactive Weather Map
Tropical Storm Tracking
New forecast layout! Learn more

10-Day Weather Forecast

Advertisements
Track Severe Weather on mobile